Time;durP1;ratioP1;P1;durP2;ratioP2;P2;SDS_P1;SDS_P2;PMS_P1;PMS_P2;Temp;Humidity;BMP_temperature;BMP_pressure;BME280_temperature;BME280_humidity;BME280_pressure;Samples;Min_cycle;Max_cycle;Signal;HPM_P1;HPM_P2
2022/12/09 00:00:32;;;;;;;;;;;;;;;2.26;100.00;100761.78;5085487;28;19917;-74
2022/12/09 00:02:58;;;;;;;;;;;;;;;2.22;100.00;100755.78;5089375;28;19931;-74
2022/12/09 00:05:23;;;;;;;;;;;;;;;2.17;100.00;100762.72;5091638;28;20163;-74
2022/12/09 00:07:48;;;;;;;;;;;;;;;2.14;100.00;100757.56;5089457;28;19931;-74
2022/12/09 00:10:13;;;;;;;;;;;;;;;2.13;100.00;100760.16;5093758;28;19924;-74
2022/12/09 00:12:39;;;;;;;;;;;;;;;2.12;100.00;100761.88;5092644;28;19920;-74
2022/12/09 00:15:04;;;;;;;;;;;;;;;2.11;100.00;100760.16;5089893;28;19917;-74
2022/12/09 00:17:29;;;;;;;;;;;;;;;2.11;100.00;100761.03;5094936;28;19924;-74
2022/12/09 00:19:55;;;;;;;;;;;;;;;2.11;100.00;100757.56;5095025;28;19920;-74
2022/12/09 00:22:20;;;;;;;;;;;;;;;2.10;100.00;100756.72;5095888;28;19924;-74
2022/12/09 00:24:45;;;;;;;;;;;;;;;2.10;100.00;100755.88;5100410;28;20182;-74
2022/12/09 00:27:11;;;;;;;;;;;;;;;2.10;100.00;100753.28;5099982;28;19942;-74
2022/12/09 00:29:36;;;;;;;;;;;;;;;2.09;100.00;100752.44;5096260;28;20016;-74
2022/12/09 00:32:01;;;;;;;;;;;;;;;2.11;100.00;100750.69;5085751;28;20062;-74
2022/12/09 00:34:27;;;;;;;;;;;;;;;2.12;100.00;100754.13;5091140;28;19920;-74
2022/12/09 00:36:52;;;;;;;;;;;;;;;2.13;100.00;100754.97;5100852;28;19962;-74
2022/12/09 00:39:17;;;;;;;;;;;;;;;2.15;100.00;100753.25;5082777;28;19929;-74
2022/12/09 00:41:42;;;;;;;;;;;;;;;2.15;100.00;100755.81;5080661;28;19948;-74
2022/12/09 00:44:08;;;;;;;;;;;;;;;2.16;100.00;100757.56;5096892;28;19948;-74
2022/12/09 00:46:34;;;;;;;;;;;;;;;2.16;100.00;100760.97;5100423;28;19953;-74
2022/12/09 00:48:59;;;;;;;;;;;;;;;2.16;100.00;100760.97;5086213;28;19948;-74
2022/12/09 00:51:24;;;;;;;;;;;;;;;2.17;100.00;100761.88;5080542;28;20222;-74
2022/12/09 00:53:54;;;;;;;;;;;;;;;2.16;100.00;100767.88;5091386;28;19916;-74
2022/12/09 00:56:27;;;;;;;;;;;;;;;2.16;100.00;100775.63;5100035;28;19912;-74
2022/12/09 00:58:52;;;;;;;;;;;;;;;2.17;100.00;100761.88;5095267;28;19912;-74
2022/12/09 01:01:18;;;;;;;;;;;;;;;2.19;100.00;100767.88;5100341;28;19983;-74
2022/12/09 01:03:43;;;;;;;;;;;;;;;2.20;100.00;100769.56;5094109;28;19924;-74
2022/12/09 01:06:13;;;;;;;;;;;;;;;2.22;100.00;100765.25;5079864;28;19924;-74
2022/12/09 01:08:39;;;;;;;;;;;;;;;2.21;100.00;100766.97;5085940;28;19920;-74
2022/12/09 01:11:08;;;;;;;;;;;;;;;2.23;100.00;100769.56;5100095;28;19916;-74
2022/12/09 01:13:33;;;;;;;;;;;;;;;2.23;100.00;100773.00;5099123;28;19958;-74
2022/12/09 01:15:59;;;;;;;;;;;;;;;2.21;100.00;100772.16;5100310;28;19920;-74
2022/12/09 01:18:24;;;;;;;;;;;;;;;2.20;100.00;100773.03;5085192;28;20015;-74
2022/12/09 01:20:58;;;;;;;;;;;;;;;2.20;100.00;100775.63;5099574;28;19947;-74
2022/12/09 01:23:23;;;;;;;;;;;;;;;2.21;100.00;100782.47;5097453;28;19915;-74
2022/12/09 01:25:49;;;;;;;;;;;;;;;2.21;100.00;100782.47;5079810;28;19929;-74
2022/12/09 01:28:14;;;;;;;;;;;;;;;2.22;100.00;100785.91;5079372;28;20119;-74
2022/12/09 01:30:39;;;;;;;;;;;;;;;2.22;100.00;100779.03;5081401;28;19929;-74
2022/12/09 01:33:04;;;;;;;;;;;;;;;2.23;100.00;100780.75;5079404;28;19988;-74
2022/12/09 01:35:30;;;;;;;;;;;;;;;2.24;100.00;100790.22;5093360;28;20203;-74
2022/12/09 01:37:55;;;;;;;;;;;;;;;2.25;100.00;100784.16;5099850;28;19924;-74
2022/12/09 01:40:20;;;;;;;;;;;;;;;2.26;100.00;100783.31;5086263;28;19935;-74
2022/12/09 01:42:48;;;;;;;;;;;;;;;2.27;100.00;100784.16;5079065;28;19993;-74
2022/12/09 01:45:19;;;;;;;;;;;;;;;2.28;100.00;100781.56;5089201;28;19968;-74
2022/12/09 01:47:50;;;;;;;;;;;;;;;2.29;100.00;100779.84;5099031;28;20215;-74
2022/12/09 01:50:15;;;;;;;;;;;;;;;2.29;100.00;100778.13;5090026;28;19993;-74
2022/12/09 01:52:41;;;;;;;;;;;;;;;2.29;100.00;100777.25;5078920;28;19917;-74
2022/12/09 01:55:07;;;;;;;;;;;;;;;2.28;100.00;100778.16;5083962;28;19927;-74
2022/12/09 01:57:32;;;;;;;;;;;;;;;2.28;100.00;100781.56;5098761;28;19927;-74
2022/12/09 01:59:57;;;;;;;;;;;;;;;2.29;100.00;100779.84;5099545;28;19919;-74
2022/12/09 02:02:26;;;;;;;;;;;;;;;2.29;100.00;100778.13;5097709;28;19924;-74
2022/12/09 02:04:52;;;;;;;;;;;;;;;2.29;100.00;100783.31;5085032;28;19916;-74
2022/12/09 02:07:18;;;;;;;;;;;;;;;2.29;100.00;100775.56;5079115;28;19921;-74
2022/12/09 02:09:43;;;;;;;;;;;;;;;2.29;100.00;100775.56;5078818;28;20019;-74
2022/12/09 02:12:13;;;;;;;;;;;;;;;2.31;100.00;100770.38;5095025;28;19953;-74
2022/12/09 02:14:59;;;;;;;;;;;;;;;2.32;100.00;100766.91;5086407;28;19927;-74
2022/12/09 02:17:28;;;;;;;;;;;;;;;2.32;100.00;100755.72;5078656;28;19921;-74
2022/12/09 02:20:03;;;;;;;;;;;;;;;2.32;100.00;100759.16;5078395;28;19932;-74
2022/12/09 02:22:33;;;;;;;;;;;;;;;2.33;100.00;100762.59;5092555;28;19924;-74
2022/12/09 02:25:05;;;;;;;;;;;;;;;2.33;100.00;100758.28;5098560;28;19924;-74
2022/12/09 02:27:35;;;;;;;;;;;;;;;2.35;100.00;100755.66;5083758;28;19950;-74
2022/12/09 02:30:00;;;;;;;;;;;;;;;2.34;100.00;100759.16;5079861;28;20318;-74
2022/12/09 02:32:25;;;;;;;;;;;;;;;2.34;100.00;100761.72;5087331;28;19919;-74
2022/12/09 02:35:00;;;;;;;;;;;;;;;2.34;100.00;100756.56;5080771;28;19912;-74
2022/12/09 02:37:27;;;;;;;;;;;;;;;2.33;100.00;100754.81;5089349;28;19911;-74
2022/12/09 02:40:02;;;;;;;;;;;;;;;2.34;100.00;100759.16;5098184;28;19912;-74
2022/12/09 02:42:31;;;;;;;;;;;;;;;2.34;100.00;100753.97;5089017;28;19916;-74
2022/12/09 02:44:57;;;;;;;;;;;;;;;2.34;100.00;100748.81;5077861;28;19932;-74
2022/12/09 02:47:24;;;;;;;;;;;;;;;2.35;100.00;100753.09;5085095;28;20167;-74
2022/12/09 02:49:51;;;;;;;;;;;;;;;2.35;100.00;100758.25;5097762;28;20077;-74
2022/12/09 02:52:18;;;;;;;;;;;;;;;2.35;100.00;100755.66;5092468;28;20081;-74
2022/12/09 02:54:43;;;;;;;;;;;;;;;2.36;100.00;100757.41;5077630;28;20162;-74
2022/12/09 02:57:16;;;;;;;;;;;;;;;2.35;100.00;100748.78;5080464;28;19928;-74
2022/12/09 02:59:41;;;;;;;;;;;;;;;2.35;100.00;100751.38;5097959;28;20107;-74
2022/12/09 03:02:07;;;;;;;;;;;;;;;2.36;100.00;100741.88;5096707;28;19941;-74
2022/12/09 03:04:32;;;;;;;;;;;;;;;2.35;100.00;100745.34;5077282;28;20139;-74
2022/12/09 03:07:06;;;;;;;;;;;;;;;2.35;100.00;100748.78;5077822;28;20000;-74
2022/12/09 03:09:33;;;;;;;;;;;;;;;2.34;100.00;100744.47;5077718;28;19912;-74
2022/12/09 03:12:01;;;;;;;;;;;;;;;2.35;100.00;100740.16;5077536;28;19916;-74
2022/12/09 03:14:30;;;;;;;;;;;;;;;2.34;100.00;100749.66;5095580;28;20123;-74
2022/12/09 03:17:05;;;;;;;;;;;;;;;2.33;100.00;100740.19;5097795;28;19920;-74
2022/12/09 03:19:41;;;;;;;;;;;;;;;2.33;100.00;100736.75;5079394;28;19916;-74
2022/12/09 03:22:08;;;;;;;;;;;;;;;2.32;100.00;100741.06;5077363;28;19924;-74
2022/12/09 03:24:37;;;;;;;;;;;;;;;2.33;100.00;100739.31;5093500;28;19954;-74
2022/12/09 03:27:05;;;;;;;;;;;;;;;2.32;100.00;100738.47;5097719;28;19920;-74
2022/12/09 03:29:32;;;;;;;;;;;;;;;2.33;100.00;100731.56;5091793;28;20145;-74
2022/12/09 03:31:58;;;;;;;;;;;;;;;2.33;100.00;100728.97;5095055;28;20024;-74
2022/12/09 03:34:24;;;;;;;;;;;;;;;2.32;100.00;100725.56;5085579;28;19919;-74
2022/12/09 03:36:51;;;;;;;;;;;;;;;2.32;100.00;100724.72;5077257;28;19991;-74
2022/12/09 03:39:19;;;;;;;;;;;;;;;2.31;100.00;100723.84;5085606;28;20352;-74
2022/12/09 03:41:48;;;;;;;;;;;;;;;2.30;100.00;100724.72;5094980;28;20229;-74
2022/12/09 03:44:20;;;;;;;;;;;;;;;2.30;100.00;100729.88;5089823;28;19951;-74
2022/12/09 03:46:45;;;;;;;;;;;;;;;2.30;100.00;100725.56;5076944;28;19924;-74
2022/12/09 03:49:11;;;;;;;;;;;;;;;2.29;100.00;100730.75;5082761;28;19923;-74
2022/12/09 03:51:39;;;;;;;;;;;;;;;2.29;100.00;100728.16;5078863;28;19924;-74
2022/12/09 03:54:08;;;;;;;;;;;;;;;2.29;100.00;100734.19;5093786;28;19950;-74
2022/12/09 03:56:37;;;;;;;;;;;;;;;2.29;100.00;100720.41;5077318;28;19916;-74
2022/12/09 03:59:03;;;;;;;;;;;;;;;2.28;100.00;100724.72;5085334;28;19908;-74
2022/12/09 04:01:30;;;;;;;;;;;;;;;2.28;100.00;100716.97;5103902;28;20264;-74
2022/12/09 04:03:56;;;;;;;;;;;;;;;2.29;100.00;100721.28;5102062;28;19956;-74
2022/12/09 04:06:21;;;;;;;;;;;;;;;2.29;100.00;100723.88;5103722;28;19946;-74
2022/12/09 04:08:47;;;;;;;;;;;;;;;2.29;100.00;100718.69;5103641;28;19939;-74
2022/12/09 04:11:12;;;;;;;;;;;;;;;2.29;100.00;100720.41;5086312;28;19912;-74
2022/12/09 04:13:37;;;;;;;;;;;;;;;2.28;100.00;100724.72;5083735;28;20029;-74
2022/12/09 04:16:03;;;;;;;;;;;;;;;2.28;100.00;100721.28;5098029;28;20142;-74
2022/12/09 04:18:28;;;;;;;;;;;;;;;2.27;100.00;100728.19;5103788;28;20130;-74
2022/12/09 04:20:53;;;;;;;;;;;;;;;2.27;100.00;100723.03;5090995;28;20269;-74
2022/12/09 04:23:19;;;;;;;;;;;;;;;2.27;100.00;100724.72;5098770;28;20207;-74
2022/12/09 04:25:44;;;;;;;;;;;;;;;2.26;100.00;100720.44;5093857;28;19928;-74
2022/12/09 04:28:09;;;;;;;;;;;;;;;2.26;100.00;100720.44;5083308;28;19920;-74
2022/12/09 04:30:34;;;;;;;;;;;;;;;2.27;100.00;100719.56;5089785;28;19931;-74
2022/12/09 04:33:00;;;;;;;;;;;;;;;2.26;100.00;100712.69;5103613;28;19923;-74
2022/12/09 04:35:26;;;;;;;;;;;;;;;2.24;100.00;100704.94;5099167;28;19958;-74
2022/12/09 04:37:51;;;;;;;;;;;;;;;2.24;100.00;100719.59;5083215;28;19916;-74
2022/12/09 04:40:18;;;;;;;;;;;;;;;2.23;100.00;100710.97;5085226;28;20167;-74
2022/12/09 04:42:43;;;;;;;;;;;;;;;2.23;100.00;100713.56;5103093;28;20056;-74
2022/12/09 04:45:09;;;;;;;;;;;;;;;2.22;100.00;100709.28;5103156;28;19913;-74
2022/12/09 04:47:34;;;;;;;;;;;;;;;2.22;100.00;100714.44;5083368;28;19924;-74
2022/12/09 04:49:59;;;;;;;;;;;;;;;2.22;100.00;100719.63;5083504;28;19912;-74
2022/12/09 04:52:24;;;;;;;;;;;;;;;2.21;100.00;100717.88;5084439;28;20014;-74
2022/12/09 04:54:50;;;;;;;;;;;;;;;2.21;100.00;100717.88;5082811;28;20116;-74
2022/12/09 04:57:15;;;;;;;;;;;;;;;2.22;100.00;100716.16;5097002;28;20139;-74
2022/12/09 04:59:41;;;;;;;;;;;;;;;2.21;100.00;100715.31;5103495;28;19912;-74
2022/12/09 05:02:06;;;;;;;;;;;;;;;2.20;100.00;100717.91;5091699;28;20014;-74
2022/12/09 05:04:31;;;;;;;;;;;;;;;2.19;100.00;100722.22;5082937;28;19947;-74
2022/12/09 05:06:56;;;;;;;;;;;;;;;2.18;100.00;100723.06;5092391;28;20119;-74
2022/12/09 05:09:21;;;;;;;;;;;;;;;2.19;100.00;100722.22;5101268;28;20227;-74
2022/12/09 05:11:47;;;;;;;;;;;;;;;2.18;100.00;100717.06;5098605;28;20313;-74
2022/12/09 05:14:12;;;;;;;;;;;;;;;2.19;100.00;100713.63;5100214;28;20113;-74
2022/12/09 05:16:37;;;;;;;;;;;;;;;2.18;100.00;100710.16;5096168;28;19924;-74
2022/12/09 05:19:03;;;;;;;;;;;;;;;2.16;100.00;100714.47;5079705;28;20205;-74
2022/12/09 05:21:28;;;;;;;;;;;;;;;2.18;100.00;100714.47;5080494;28;19963;-74
2022/12/09 05:23:54;;;;;;;;;;;;;;;2.17;100.00;100716.22;5099666;28;20185;-74
2022/12/09 05:26:20;;;;;;;;;;;;;;;2.18;100.00;100711.88;5099746;28;19916;-74
2022/12/09 05:28:45;;;;;;;;;;;;;;;2.18;100.00;100706.72;5081106;28;20344;-74
2022/12/09 05:31:13;;;;;;;;;;;;;;;2.16;100.00;100704.13;5079626;28;19916;-74
2022/12/09 05:33:39;;;;;;;;;;;;;;;2.17;100.00;100707.59;5095697;28;20232;-74
2022/12/09 05:36:07;;;;;;;;;;;;;;;2.16;100.00;100706.72;5099802;28;19916;-74
2022/12/09 05:38:32;;;;;;;;;;;;;;;2.17;100.00;100707.59;5085721;28;19919;-74
2022/12/09 05:40:58;;;;;;;;;;;;;;;2.15;100.00;100707.63;5079570;28;19920;-74
2022/12/09 05:43:23;;;;;;;;;;;;;;;2.15;100.00;100699.88;5090666;28;19912;-74
2022/12/09 05:45:48;;;;;;;;;;;;;;;2.16;100.00;100709.31;5099226;28;19928;-74
2022/12/09 05:48:14;;;;;;;;;;;;;;;2.17;100.00;100699.84;5091113;28;19935;-74
2022/12/09 05:50:39;;;;;;;;;;;;;;;2.16;100.00;100703.28;5079012;28;20266;-74
2022/12/09 05:53:04;;;;;;;;;;;;;;;2.16;100.00;100698.13;5084793;28;20119;-74
2022/12/09 05:55:29;;;;;;;;;;;;;;;2.14;100.00;100695.56;5099456;28;20472;-74
2022/12/09 05:57:55;;;;;;;;;;;;;;;2.14;100.00;100695.56;5095650;28;19924;-74
2022/12/09 06:00:21;;;;;;;;;;;;;;;2.15;100.00;100698.97;5079234;28;20115;-74
2022/12/09 06:02:46;;;;;;;;;;;;;;;2.14;100.00;100703.31;5079582;28;19920;-74
2022/12/09 06:05:11;;;;;;;;;;;;;;;2.13;100.00;100690.41;5095933;28;20154;-74
2022/12/09 06:07:36;;;;;;;;;;;;;;;2.14;100.00;100692.97;5089948;28;19916;-74
2022/12/09 06:10:02;;;;;;;;;;;;;;;2.13;100.00;100687.81;5080089;28;20025;-74
2022/12/09 06:12:28;;;;;;;;;;;;;;;2.11;100.00;100687.81;5078812;28;20235;-74
2022/12/09 06:14:53;;;;;;;;;;;;;;;2.09;100.00;100693.03;5094692;28;19931;-74
2022/12/09 06:17:19;;;;;;;;;;;;;;;2.10;100.00;100686.13;5086036;28;20229;-74
2022/12/09 06:19:44;;;;;;;;;;;;;;;2.08;100.00;100693.88;5091469;28;19916;-73
2022/12/09 06:22:09;;;;;;;;;;;;;;;2.06;100.00;100693.03;5098585;28;19954;-74
2022/12/09 06:24:34;;;;;;;;;;;;;;;2.05;100.00;100695.63;5094217;28;20104;-73
2022/12/09 06:27:00;;;;;;;;;;;;;;;2.03;100.00;100694.78;5089176;28;19924;-74
2022/12/09 06:29:25;;;;;;;;;;;;;;;2.01;100.00;100689.63;5086924;28;19923;-73
2022/12/09 06:31:50;;;;;;;;;;;;;;;2.00;100.00;100692.22;5098259;28;19987;-73
2022/12/09 06:34:15;;;;;;;;;;;;;;;1.99;100.00;100700.84;5091814;28;19924;-73
2022/12/09 06:36:41;;;;;;;;;;;;;;;1.96;100.00;100699.13;5077952;28;19924;-73
2022/12/09 06:39:06;;;;;;;;;;;;;;;1.95;100.00;100697.44;5081690;28;19924;-74
2022/12/09 06:41:31;;;;;;;;;;;;;;;1.92;100.00;100700.03;5098194;28;19916;-73
2022/12/09 06:43:57;;;;;;;;;;;;;;;1.91;100.00;100699.19;5097642;28;19942;-73
2022/12/09 06:46:23;;;;;;;;;;;;;;;1.89;100.00;100697.47;5094264;28;19969;-73
2022/12/09 06:48:48;;;;;;;;;;;;;;;1.87;100.00;100692.34;5078217;28;19944;-73
2022/12/09 06:51:14;;;;;;;;;;;;;;;1.84;100.00;100694.94;5095684;28;19947;-73
2022/12/09 06:53:39;;;;;;;;;;;;;;;1.84;100.00;100696.66;5097679;28;19912;-73
2022/12/09 06:56:06;;;;;;;;;;;;;;;1.83;100.00;100703.53;5082245;28;19913;-73
2022/12/09 06:58:32;;;;;;;;;;;;;;;1.82;100.00;100698.38;5077538;28;19951;-73
2022/12/09 07:01:07;;;;;;;;;;;;;;;1.82;100.00;100696.66;5078376;28;19957;-73
2022/12/09 07:03:33;;;;;;;;;;;;;;;1.81;100.00;100697.53;5077676;28;19944;-73
2022/12/09 07:05:58;;;;;;;;;;;;;;;1.80;100.00;100697.53;5094189;28;19955;-73
2022/12/09 07:08:23;;;;;;;;;;;;;;;1.79;100.00;100696.69;5097035;28;19924;-73
2022/12/09 07:10:49;;;;;;;;;;;;;;;1.79;100.00;100703.56;5095041;28;20134;-73
2022/12/09 07:13:14;;;;;;;;;;;;;;;1.77;100.00;100693.25;5097050;28;19943;-74
2022/12/09 07:15:39;;;;;;;;;;;;;;;1.77;100.00;100703.59;5088917;28;20134;-73
2022/12/09 07:18:06;;;;;;;;;;;;;;;1.77;100.00;100700.16;5094814;28;19916;-74
2022/12/09 07:20:31;;;;;;;;;;;;;;;1.77;100.00;100710.47;5092798;28;20203;-73
2022/12/09 07:22:56;;;;;;;;;;;;;;;1.75;100.00;100704.44;5075635;28;20038;-74
2022/12/09 07:25:21;;;;;;;;;;;;;;;1.74;100.00;100706.19;5096013;28;19923;-73
2022/12/09 07:27:47;;;;;;;;;;;;;;;1.72;100.00;100700.16;5083546;28;19924;-73
2022/12/09 07:30:12;;;;;;;;;;;;;;;1.71;100.00;100704.47;5088849;28;19974;-74
2022/12/09 07:32:37;;;;;;;;;;;;;;;1.70;100.00;100702.75;5090518;28;19925;-73
2022/12/09 07:35:02;;;;;;;;;;;;;;;1.69;100.00;100703.63;5082950;28;19973;-73
2022/12/09 07:37:28;;;;;;;;;;;;;;;1.69;100.00;100707.91;5091432;28;20179;-73
2022/12/09 07:39:53;;;;;;;;;;;;;;;1.67;100.00;100713.13;5095315;28;19916;-74
2022/12/09 07:42:18;;;;;;;;;;;;;;;1.66;100.00;100706.22;5087590;28;20220;-73
2022/12/09 07:44:43;;;;;;;;;;;;;;;1.65;100.00;100706.25;5094144;28;19973;-73
2022/12/09 07:47:09;;;;;;;;;;;;;;;1.65;100.00;100708.81;5093619;28;20168;-73
2022/12/09 07:49:34;;;;;;;;;;;;;;;1.63;100.00;100713.97;5087700;28;20005;-73
2022/12/09 07:51:59;;;;;;;;;;;;;;;1.62;100.00;100717.44;5094971;28;20277;-74
2022/12/09 07:54:24;;;;;;;;;;;;;;;1.62;100.00;100716.56;5091686;28;20223;-73
2022/12/09 07:56:50;;;;;;;;;;;;;;;1.60;100.00;100714.03;5094582;28;19924;-73
2022/12/09 07:59:15;;;;;;;;;;;;;;;1.59;100.00;100714.03;5094155;28;19923;-73
2022/12/09 08:01:41;;;;;;;;;;;;;;;1.58;100.00;100710.56;5095119;28;19939;-73
2022/12/09 08:04:06;;;;;;;;;;;;;;;1.57;100.00;100706.28;5096188;28;19920;-74
2022/12/09 08:06:32;;;;;;;;;;;;;;;1.56;100.00;100714.03;5093597;28;19973;-74
2022/12/09 08:08:58;;;;;;;;;;;;;;;1.56;100.00;100714.03;5096666;28;19916;-74
2022/12/09 08:11:24;;;;;;;;;;;;;;;1.54;100.00;100708.88;5094190;28;19957;-73
2022/12/09 08:13:50;;;;;;;;;;;;;;;1.54;100.00;100711.47;5094768;28;19927;-73
2022/12/09 08:16:17;;;;;;;;;;;;;;;1.53;100.00;100725.25;5092097;28;19916;-73
2022/12/09 08:18:42;;;;;;;;;;;;;;;1.51;100.00;100711.47;5073508;28;19931;-73
2022/12/09 08:21:10;;;;;;;;;;;;;;;1.51;100.00;100714.03;5082070;28;19924;-74
2022/12/09 08:23:35;;;;;;;;;;;;;;;1.49;100.00;100721.81;5080394;28;20379;-73
2022/12/09 08:26:01;;;;;;;;;;;;;;;1.50;100.00;100714.94;5080177;28;20181;-73
2022/12/09 08:28:27;;;;;;;;;;;;;;;1.48;100.00;100722.69;5081636;28;20391;-73
2022/12/09 08:30:52;;;;;;;;;;;;;;;1.48;100.00;100719.25;5081211;28;19916;-73
2022/12/09 08:33:18;;;;;;;;;;;;;;;1.47;100.00;100718.38;5075074;28;20199;-73
2022/12/09 08:35:43;;;;;;;;;;;;;;;1.46;100.00;100716.66;5076883;28;19948;-73
2022/12/09 08:38:08;;;;;;;;;;;;;;;1.45;100.00;100712.34;5076428;28;19919;-73
2022/12/09 08:40:34;;;;;;;;;;;;;;;1.46;100.00;100710.66;5082938;28;20167;-73
2022/12/09 08:42:59;;;;;;;;;;;;;;;1.45;100.00;100714.09;5080981;28;20040;-73
2022/12/09 08:45:25;;;;;;;;;;;;;;;1.45;100.00;100719.25;5079869;28;19992;-73
2022/12/09 08:47:50;;;;;;;;;;;;;;;1.44;100.00;100720.97;5085801;28;20407;-74
2022/12/09 08:50:15;;;;;;;;;;;;;;;1.45;100.00;100727.84;5085296;28;19959;-74
2022/12/09 08:52:41;;;;;;;;;;;;;;;1.45;100.00;100719.25;5086142;28;19991;-74
2022/12/09 08:55:07;;;;;;;;;;;;;;;1.45;100.00;100724.41;5081372;28;19920;-73
2022/12/09 08:57:32;;;;;;;;;;;;;;;1.45;100.00;100724.41;5084871;28;20255;-74
2022/12/09 08:59:57;;;;;;;;;;;;;;;1.44;100.00;100717.56;5086360;28;19928;-74
2022/12/09 09:02:22;;;;;;;;;;;;;;;1.43;100.00;100721.00;5086773;28;19987;-73
2022/12/09 09:04:48;;;;;;;;;;;;;;;1.44;100.00;100718.41;5083040;28;20033;-73
2022/12/09 09:07:13;;;;;;;;;;;;;;;1.44;100.00;100715.81;5083424;28;19924;-73
2022/12/09 09:09:39;;;;;;;;;;;;;;;1.43;100.00;100716.69;5083270;28;20131;-73
2022/12/09 09:12:04;;;;;;;;;;;;;;;1.43;100.00;100716.69;5083603;28;20211;-73
2022/12/09 09:14:29;;;;;;;;;;;;;;;1.43;100.00;100718.41;5082189;28;20040;-73
2022/12/09 09:16:55;;;;;;;;;;;;;;;1.45;100.00;100719.25;5085094;28;19965;-73
2022/12/09 09:19:21;;;;;;;;;;;;;;;1.43;100.00;100714.09;5084420;28;20330;-73
2022/12/09 09:21:47;;;;;;;;;;;;;;;1.45;100.00;100721.84;5083503;28;19924;-73
2022/12/09 09:24:13;;;;;;;;;;;;;;;1.45;100.00;100719.25;5084650;28;20336;-73
2022/12/09 09:26:40;;;;;;;;;;;;;;;1.45;100.00;100714.09;5083355;28;19966;-73
2022/12/09 09:29:06;;;;;;;;;;;;;;;1.46;100.00;100720.97;5085411;28;19919;-74
2022/12/09 09:31:31;;;;;;;;;;;;;;;1.46;100.00;100723.56;5084113;28;19951;-73
2022/12/09 09:33:56;;;;;;;;;;;;;;;1.47;100.00;100727.84;5085454;28;19978;-74
2022/12/09 09:36:23;;;;;;;;;;;;;;;1.47;100.00;100733.84;5084910;28;19924;-73
2022/12/09 09:38:49;;;;;;;;;;;;;;;1.48;100.00;100730.41;5085185;28;19916;-73
2022/12/09 09:41:17;;;;;;;;;;;;;;;1.48;100.00;100735.59;5084891;28;20375;-74
2022/12/09 09:43:43;;;;;;;;;;;;;;;1.49;100.00;100739.88;5084545;28;19916;-74
2022/12/09 09:46:15;;;;;;;;;;;;;;;1.50;100.00;100733.00;5083693;28;19930;-73
2022/12/09 09:48:40;;;;;;;;;;;;;;;1.51;100.00;100739.84;5085547;28;20239;-73
2022/12/09 09:51:16;;;;;;;;;;;;;;;1.52;100.00;100737.28;5079557;28;19955;-73
2022/12/09 09:53:42;;;;;;;;;;;;;;;1.52;100.00;100745.00;5084874;28;19956;-73
2022/12/09 09:56:23;;;;;;;;;;;;;;;1.54;100.00;100750.19;5082716;28;19920;-73
2022/12/09 09:59:15;;;;;;;;;;;;;;;1.54;100.00;100747.59;5084700;28;19923;-73
2022/12/09 10:01:43;;;;;;;;;;;;;;;1.56;100.00;100756.19;5045901;28;20116;-73
2022/12/09 10:04:19;;;;;;;;;;;;;;;1.58;100.00;100751.03;5083423;28;20193;-73
2022/12/09 10:06:56;;;;;;;;;;;;;;;1.59;100.00;100748.44;5081610;28;20350;-73
2022/12/09 10:09:47;;;;;;;;;;;;;;;1.61;100.00;100748.44;5085121;28;20124;-73
2022/12/09 10:12:12;;;;;;;;;;;;;;;1.61;100.00;100743.28;5052924;28;19920;-73
2022/12/09 10:14:43;;;;;;;;;;;;;;;1.62;100.00;100737.22;5084225;28;20227;-73
2022/12/09 10:17:17;;;;;;;;;;;;;;;1.63;100.00;100746.69;5095694;28;19928;-73
2022/12/09 10:19:47;;;;;;;;;;;;;;;1.64;100.00;100744.13;5092425;28;20074;-73
2022/12/09 10:22:22;;;;;;;;;;;;;;;1.65;100.00;100745.81;5097591;28;19985;-73
2022/12/09 10:24:48;;;;;;;;;;;;;;;1.66;100.00;100747.53;5097315;28;19927;-73
2022/12/09 10:27:18;;;;;;;;;;;;;;;1.66;100.00;100754.44;5097917;28;19916;-73
2022/12/09 10:29:55;;;;;;;;;;;;;;;1.68;100.00;100750.97;5097886;28;20222;-73
2022/12/09 10:32:23;;;;;;;;;;;;;;;1.68;100.00;100750.13;5097829;28;19920;-73
2022/12/09 10:34:48;;;;;;;;;;;;;;;1.68;100.00;100753.53;5097526;28;19916;-73
2022/12/09 10:37:20;;;;;;;;;;;;;;;1.70;100.00;100756.13;5085884;28;20104;-73
2022/12/09 10:39:46;;;;;;;;;;;;;;;1.72;100.00;100750.06;5075981;28;20161;-73
2022/12/09 10:45:03;;;;;;;;;;;;;;;1.78;100.00;100741.44;5077075;28;19931;-73
2022/12/09 10:47:29;;;;;;;;;;;;;;;1.80;100.00;100736.25;5077546;28;19938;-73
2022/12/09 10:49:56;;;;;;;;;;;;;;;1.82;100.00;100737.09;5077602;28;19958;-73
2022/12/09 10:52:23;;;;;;;;;;;;;;;1.83;100.00;100731.09;5077166;28;19988;-73
2022/12/09 10:54:48;;;;;;;;;;;;;;;1.83;100.00;100720.75;5076480;28;19924;-73
2022/12/09 10:57:13;;;;;;;;;;;;;;;1.84;100.00;100723.34;5075617;28;19912;-73
2022/12/09 10:59:40;;;;;;;;;;;;;;;1.86;100.00;100719.00;5082385;28;20238;-73
2022/12/09 11:02:08;;;;;;;;;;;;;;;1.88;100.00;100713.84;5079799;28;19921;-73
2022/12/09 11:04:35;;;;;;;;;;;;;;;1.89;100.00;100716.41;5076632;28;19912;-73
2022/12/09 11:07:06;;;;;;;;;;;;;;;1.90;100.00;100718.13;5096862;28;19908;-73
2022/12/09 11:09:33;;;;;;;;;;;;;;;1.92;100.00;100710.34;5096733;28;20127;-73
2022/12/09 11:11:59;;;;;;;;;;;;;;;1.94;100.00;100711.19;5097238;28;19939;-73
2022/12/09 11:14:28;;;;;;;;;;;;;;;1.96;100.00;100711.19;5096882;28;20191;-73
2022/12/09 11:16:58;;;;;;;;;;;;;;;1.98;100.00;100709.47;5096449;28;19916;-73
2022/12/09 11:19:27;;;;;;;;;;;;;;;1.99;100.00;100708.59;5096341;28;20245;-73
2022/12/09 11:22:10;;;;;;;;;;;;;;;2.00;100.00;100711.19;5096630;28;19923;-73
2022/12/09 11:24:36;;;;;;;;;;;;;;;2.01;100.00;100709.44;5096535;28;19908;-73
2022/12/09 11:27:01;;;;;;;;;;;;;;;2.01;100.00;100706.88;5096859;28;19920;-73
2022/12/09 11:29:26;;;;;;;;;;;;;;;2.02;100.00;100708.56;5096807;28;19943;-73
2022/12/09 11:31:52;;;;;;;;;;;;;;;2.04;100.00;100712.00;5091772;28;19952;-73
2022/12/09 11:34:23;;;;;;;;;;;;;;;2.04;100.00;100707.69;5094785;28;19982;-73
2022/12/09 11:36:50;;;;;;;;;;;;;;;2.05;100.00;100706.81;5088698;28;19950;-73
2022/12/09 11:39:26;;;;;;;;;;;;;;;2.05;100.00;100709.41;5087541;28;20021;-73
2022/12/09 11:42:16;;;;;;;;;;;;;;;2.06;100.00;100708.53;5095810;28;20211;-73
2022/12/09 11:44:47;;;;;;;;;;;;;;;2.09;100.00;100712.81;5090590;28;20225;-73
2022/12/09 11:47:19;;;;;;;;;;;;;;;2.10;100.00;100711.94;5092536;28;20307;-73
2022/12/09 11:49:49;;;;;;;;;;;;;;;2.13;100.00;100718.81;5079974;28;19969;-73
2022/12/09 11:52:17;;;;;;;;;;;;;;;2.14;100.00;100710.19;5084661;28;20228;-73
2022/12/09 11:54:48;;;;;;;;;;;;;;;2.15;100.00;100707.63;5093526;28;19921;-73
2022/12/09 11:57:32;;;;;;;;;;;;;;;2.16;100.00;100711.91;5095472;28;20016;-73
2022/12/09 12:00:00;;;;;;;;;;;;;;;2.18;100.00;100710.16;5082057;28;19920;-73
2022/12/09 12:02:58;;;;;;;;;;;;;;;2.21;100.00;100711.88;5097060;28;19923;-73
2022/12/09 12:05:23;;;;;;;;;;;;;;;2.23;100.00;100712.72;5041791;28;20008;-73
2022/12/09 12:07:51;;;;;;;;;;;;;;;2.23;100.00;100705.81;5092730;28;19939;-73
2022/12/09 12:10:37;;;;;;;;;;;;;;;2.26;100.00;100717.88;5092766;28;20157;-73
2022/12/09 12:13:11;;;;;;;;;;;;;;;2.28;100.00;100710.94;5034994;28;19915;-73
2022/12/09 12:15:42;;;;;;;;;;;;;;;2.30;100.00;100719.53;5085645;28;20218;-73
2022/12/09 12:18:12;;;;;;;;;;;;;;;2.32;100.00;100711.78;5084771;28;20370;-73
2022/12/09 12:20:43;;;;;;;;;;;;;;;2.33;100.00;100703.13;5081156;28;19991;-73
2022/12/09 12:23:08;;;;;;;;;;;;;;;2.34;100.00;100710.03;5096299;28;19965;-73
2022/12/09 12:25:43;;;;;;;;;;;;;;;2.36;100.00;100710.88;5096251;28;20271;-73
2022/12/09 12:28:34;;;;;;;;;;;;;;;2.38;100.00;100711.72;5094614;28;20229;-73
2022/12/09 12:31:14;;;;;;;;;;;;;;;2.40;100.00;100710.84;5095664;28;20079;-73
2022/12/09 12:33:48;;;;;;;;;;;;;;;2.42;100.00;100708.22;5099112;28;19908;-73
2022/12/09 12:36:32;;;;;;;;;;;;;;;2.43;100.00;100708.22;5098123;28;20114;-73
2022/12/09 12:39:11;;;;;;;;;;;;;;;2.44;100.00;100711.69;5098346;28;19955;-73